Washington, DC (20077)

11:00 PM EDT on July 28, 2016 (GMT -0400)
Eckington Pl, NE | | Change Station

Elev 90 ft 38.91 °N, 77.01 °W | Updated 2 minutes ago

Overcast
Overcast
77.5 °F
Feels Like 79 °F
N
4.0
Wind Variable Wind from WNW
Gusts 7.0 mph

Today
High -- | Low -- °F
--% Chance of Precip.
Yesterday
High -- | Low -- °F
Precip. -- in
Pressure 29.86 in
Visibility 10.0 miles
Clouds Mostly Cloudy 900 ft
Mostly Cloudy 1400 ft
Overcast 8000 ft
Heat Index 79 °F
Dew Point 74 °F
Humidity 88%
Rainfall Not available.
Snow Depth Not available.
6:05 AM 8:22 PM
Waning Crescent, 26% visible
METAR KDCA 290252Z 02006KT 10SM BKN009 BKN014 OVC080 26/24 A2985 RMK AO2 RAE06B19E52 SLP109 P0000 60008 T02560239 53002
Pressure 29.86 in
Visibility 10.0 miles
Clouds Mostly Cloudy 900 ft
Mostly Cloudy 1400 ft
Overcast 8000 ft
Heat Index 79 °F
Dew Point 74 °F
Humidity 88%
Rainfall Not available.
Snow Depth Not available.
6:05 AM 8:22 PM
Waning Crescent, 26% visible
METAR KDCA 290252Z 02006KT 10SM BKN009 BKN014 OVC080 26/24 A2985 RMK AO2 RAE06B19E52 SLP109 P0000 60008 T02560239 53002

10-Day Weather Forecast

Almanac

Astronomy

Jul. 28, 2016 Rise Set
Actual Time
Civil Twilight
Nautical Twilight
Astronomical Twilight
Moon
Length of Visible Light
Length of Day
Tomorrow will be .
, % of the Moon is Illuminated

Today's Extremes

State Highs State Lows

Community

WunderPhotos

Upload Photos

1,928,274 photos uploaded!

WunderBlog® & News

Nearby

Air Quality

  Air Quality AQ Index Pollutant
Not available.

Snow Depth

Station Depth Elevation

Earthquake Activity

City Distance Mag. Time & Date
Minimum magnitude displayed is 2.5.

Coastal Water Temperatures

Place Temperature

Stations

Nearby Weather Stations

Station Location Temp. Windchill Dew Point Humidity Wind Precip. Elev Updated Type
                   

Watches & Warnings

There are currently no watches in effect.